createdAt,value
2022-12-27T00:02:54.205Z,7.06
2022-12-27T00:05:58.116Z,7.02
2022-12-27T00:09:02.831Z,6.97
2022-12-27T00:12:06.249Z,7.03
2022-12-27T00:15:09.325Z,7.15
2022-12-27T00:18:14.006Z,7.22
2022-12-27T00:21:17.833Z,7.30
2022-12-27T00:24:21.014Z,7.21
2022-12-27T00:27:23.896Z,7.39
2022-12-27T00:30:27.007Z,7.50
2022-12-27T00:33:35.563Z,7.10
2022-12-27T00:36:38.716Z,7.22
2022-12-27T00:39:41.488Z,7.30
2022-12-27T00:42:44.597Z,7.41
2022-12-27T00:45:48.315Z,7.38
2022-12-27T00:48:53.623Z,7.31
2022-12-27T00:51:57.148Z,7.39
2022-12-27T00:55:00.273Z,7.34
2022-12-27T00:58:03.629Z,7.33
2022-12-27T01:01:13.586Z,7.42
2022-12-27T01:04:17.474Z,7.52
2022-12-27T01:07:21.042Z,7.42
2022-12-27T01:10:25.036Z,7.44
2022-12-27T01:13:28.284Z,7.49
2022-12-27T01:16:33.681Z,7.34
2022-12-27T01:19:37.675Z,6.89
2022-12-27T01:22:40.403Z,7.11
2022-12-27T01:25:43.562Z,7.19
2022-12-27T01:28:47.557Z,7.18
2022-12-27T01:35:06.337Z,7.95
2022-12-27T01:38:09.737Z,7.95
2022-12-27T01:41:54.759Z,7.34
2022-12-27T01:44:58.634Z,7.62
2022-12-27T01:48:43.630Z,7.64
2022-12-27T01:51:46.838Z,7.62
2022-12-27T01:54:49.793Z,7.33
2022-12-27T01:57:58.229Z,7.25
2022-12-27T02:01:02.820Z,7.41
2022-12-27T02:04:11.064Z,7.39
2022-12-27T02:07:14.271Z,7.51
2022-12-27T02:10:17.860Z,7.43
2022-12-27T02:13:24.938Z,7.39
2022-12-27T02:16:27.925Z,7.26
2022-12-27T02:23:44.979Z,7.53
2022-12-27T02:26:53.787Z,7.44
2022-12-27T02:30:04.906Z,7.72
2022-12-27T02:33:18.850Z,7.64
2022-12-27T02:36:24.832Z,7.78
2022-12-27T02:39:30.857Z,7.74
2022-12-27T02:42:53.841Z,7.62
2022-12-27T02:46:25.038Z,7.50
2022-12-27T02:49:52.472Z,7.50
2022-12-27T02:53:09.709Z,7.46
2022-12-27T02:56:58.736Z,7.64
2022-12-27T03:00:39.206Z,7.70
2022-12-27T03:11:08.651Z,7.30
2022-12-27T03:14:48.776Z,7.03
2022-12-27T03:18:08.562Z,7.04
2022-12-27T03:21:48.680Z,6.85
2022-12-27T03:25:13.399Z,6.86
2022-12-27T03:28:41.805Z,6.79
2022-12-27T03:32:08.730Z,6.79
2022-12-27T03:35:17.643Z,6.61
2022-12-27T03:38:20.887Z,6.33
2022-12-27T03:42:24.922Z,6.29
2022-12-27T03:46:08.773Z,6.04
2022-12-27T03:49:38.683Z,6.13
2022-12-27T03:52:49.095Z,6.13
2022-12-27T03:55:56.008Z,5.98
2022-12-27T03:59:01.232Z,5.80
2022-12-27T04:02:11.318Z,5.85
2022-12-27T04:05:14.942Z,5.80
2022-12-27T04:08:38.289Z,5.72
2022-12-27T04:12:01.896Z,5.61
2022-12-27T04:18:52.551Z,5.73
2022-12-27T04:22:15.831Z,5.38
2022-12-27T04:25:42.266Z,5.37
2022-12-27T04:32:32.475Z,5.19
2022-12-27T04:35:35.855Z,5.26
2022-12-27T04:38:39.328Z,5.18
2022-12-27T04:42:03.845Z,5.12
2022-12-27T04:45:30.182Z,5.17
2022-12-27T04:48:53.526Z,5.05
2022-12-27T04:52:17.475Z,4.97
2022-12-27T04:55:28.564Z,4.93
2022-12-27T04:58:33.166Z,4.83
2022-12-27T05:01:57.006Z,4.63
2022-12-27T05:05:03.838Z,4.55
2022-12-27T05:08:28.703Z,4.57
2022-12-27T05:11:52.406Z,4.59
2022-12-27T05:14:55.587Z,4.65
2022-12-27T05:17:59.043Z,4.55
2022-12-27T05:21:04.027Z,4.46
2022-12-27T05:24:29.253Z,4.42
2022-12-27T05:27:32.391Z,4.44
2022-12-27T05:30:38.244Z,4.42
2022-12-27T05:33:41.373Z,4.47
2022-12-27T05:36:44.884Z,4.42
2022-12-27T05:39:52.191Z,4.52
2022-12-27T05:42:59.535Z,4.57
2022-12-27T05:46:08.527Z,4.67
2022-12-27T05:49:12.399Z,4.91
2022-12-27T05:52:15.469Z,5.30
2022-12-27T05:55:18.934Z,5.56
2022-12-27T06:01:40.803Z,6.02
2022-12-27T06:04:45.224Z,6.21
2022-12-27T06:07:48.370Z,6.38
2022-12-27T06:10:54.257Z,6.47
2022-12-27T06:13:57.476Z,6.71
2022-12-27T06:17:00.988Z,6.88
2022-12-27T06:20:07.548Z,6.92
2022-12-27T06:23:11.044Z,6.94
2022-12-27T06:26:34.600Z,6.96
2022-12-27T06:29:39.471Z,6.95
2022-12-27T06:32:43.059Z,6.88
2022-12-27T06:35:46.232Z,6.97
2022-12-27T06:38:50.636Z,6.98
2022-12-27T06:45:00.611Z,6.81
2022-12-27T06:48:04.022Z,6.73
2022-12-27T06:51:09.704Z,6.64
2022-12-27T06:54:12.898Z,6.58
2022-12-27T06:57:19.437Z,6.50
2022-12-27T07:00:22.609Z,6.49
2022-12-27T07:03:26.181Z,6.52
2022-12-27T07:09:42.709Z,6.78
2022-12-27T07:12:46.039Z,6.76
2022-12-27T07:15:49.920Z,6.76
2022-12-27T07:18:55.218Z,6.88
2022-12-27T07:22:03.165Z,7.04
2022-12-27T07:25:08.002Z,7.50
2022-12-27T07:31:24.441Z,7.41
2022-12-27T07:35:16.971Z,7.43
2022-12-27T07:38:20.196Z,7.48
2022-12-27T07:41:25.195Z,7.71
2022-12-27T07:44:29.301Z,7.54
2022-12-27T07:47:33.662Z,7.47
2022-12-27T07:50:58.832Z,7.56
2022-12-27T07:54:02.828Z,7.41
2022-12-27T07:57:06.082Z,7.33
2022-12-27T08:00:10.332Z,7.53
2022-12-27T08:03:15.039Z,7.73
2022-12-27T08:10:08.373Z,7.92
2022-12-27T08:13:11.975Z,7.99
2022-12-27T08:16:24.039Z,7.86
2022-12-27T08:19:28.295Z,7.73
2022-12-27T08:27:03.922Z,7.62
2022-12-27T08:30:08.685Z,7.79
2022-12-27T08:33:12.677Z,7.94
2022-12-27T08:36:52.927Z,8.29
2022-12-27T08:39:25.534Z,8.70
2022-12-27T08:42:29.748Z,9.12
2022-12-27T08:45:33.502Z,9.50
2022-12-27T08:48:38.297Z,10.07
2022-12-27T08:51:44.064Z,10.18
2022-12-27T08:54:48.058Z,10.91
2022-12-27T08:57:53.683Z,11.27
2022-12-27T09:01:06.367Z,11.09
2022-12-27T09:04:10.267Z,11.46
2022-12-27T09:07:13.957Z,12.17
2022-12-27T09:10:19.161Z,11.82
2022-12-27T09:13:22.668Z,11.68
2022-12-27T09:16:29.634Z,11.46
2022-12-27T09:24:13.989Z,11.12
2022-12-27T09:27:18.108Z,10.87
2022-12-27T09:30:21.565Z,10.48
2022-12-27T09:33:29.048Z,10.29
2022-12-27T09:39:22.651Z,11.36
2022-12-27T09:42:56.212Z,11.36
2022-12-27T09:46:03.265Z,11.15
2022-12-27T09:49:23.194Z,11.62
2022-12-27T09:52:45.477Z,11.56
2022-12-27T09:55:54.697Z,11.47
2022-12-27T09:59:21.856Z,11.41
2022-12-27T10:05:56.614Z,11.06
2022-12-27T10:09:05.007Z,11.13
2022-12-27T10:12:31.607Z,11.60
2022-12-27T10:15:52.107Z,11.66
2022-12-27T10:19:19.777Z,11.67
2022-12-27T10:22:41.566Z,11.16
2022-12-27T10:25:48.140Z,11.34
2022-12-27T10:29:19.852Z,12.23
2022-12-27T10:32:34.250Z,12.09
2022-12-27T10:35:41.485Z,12.10
2022-12-27T10:38:50.350Z,11.45
2022-12-27T10:42:32.948Z,11.19
2022-12-27T10:45:39.888Z,11.17
2022-12-27T10:52:28.048Z,11.25
2022-12-27T10:55:45.406Z,11.86
2022-12-27T10:58:59.079Z,11.64
2022-12-27T11:02:05.041Z,12.16
2022-12-27T11:05:28.784Z,12.38
2022-12-27T11:08:32.052Z,12.33
2022-12-27T11:11:38.723Z,11.71
2022-12-27T11:15:03.716Z,11.97
2022-12-27T11:18:20.937Z,12.25
2022-12-27T11:21:28.160Z,12.27
2022-12-27T11:24:33.548Z,12.27
2022-12-27T11:27:39.320Z,12.07
2022-12-27T11:31:17.187Z,12.24
2022-12-27T11:34:49.944Z,12.65
2022-12-27T11:37:59.766Z,12.89
2022-12-27T11:41:08.369Z,12.19
2022-12-27T11:44:22.702Z,12.09
2022-12-27T11:47:49.908Z,12.52
2022-12-27T11:51:35.666Z,12.68
2022-12-27T11:55:03.575Z,12.49
2022-12-27T11:58:45.488Z,12.97
2022-12-27T12:02:20.267Z,12.86
2022-12-27T12:05:30.543Z,13.17
2022-12-27T12:09:11.946Z,13.01
2022-12-27T12:12:24.640Z,13.12
2022-12-27T12:16:09.695Z,13.06
2022-12-27T12:19:52.311Z,12.92
2022-12-27T12:23:42.362Z,12.58
2022-12-27T12:26:56.041Z,13.31
2022-12-27T12:30:22.457Z,12.47
2022-12-27T12:33:57.441Z,12.11
2022-12-27T12:37:17.733Z,11.65
2022-12-27T12:40:46.276Z,11.98
2022-12-27T12:44:10.881Z,12.24
2022-12-27T12:47:26.727Z,12.77
2022-12-27T12:50:41.860Z,11.98
2022-12-27T12:53:57.352Z,11.79
2022-12-27T12:57:09.797Z,12.11
2022-12-27T13:00:31.411Z,12.29
2022-12-27T13:03:49.248Z,12.19
2022-12-27T13:07:18.245Z,12.50
2022-12-27T13:10:57.833Z,11.96
2022-12-27T13:14:23.142Z,11.11
2022-12-27T13:17:47.083Z,11.50
2022-12-27T13:21:04.057Z,11.32
2022-12-27T13:24:27.782Z,11.70
2022-12-27T13:27:50.961Z,11.41
2022-12-27T13:31:18.691Z,11.34
2022-12-27T13:34:30.776Z,11.77
2022-12-27T13:37:46.353Z,11.48
2022-12-27T13:41:26.369Z,10.61
2022-12-27T13:44:51.885Z,9.52
2022-12-27T13:48:43.523Z,8.41
2022-12-27T13:51:47.958Z,7.74
2022-12-27T13:55:06.409Z,7.12
2022-12-27T13:58:18.564Z,6.84
2022-12-27T14:01:30.942Z,6.63
2022-12-27T14:04:57.598Z,6.49
2022-12-27T14:08:18.107Z,6.31
2022-12-27T14:28:03.190Z,5.66
2022-12-27T14:31:21.498Z,5.51
2022-12-27T14:34:59.096Z,5.35
2022-12-27T14:38:42.659Z,5.24
2022-12-27T14:42:07.244Z,5.15
2022-12-27T14:45:22.335Z,5.02
2022-12-27T14:49:14.480Z,4.88
2022-12-27T14:52:38.903Z,4.82
2022-12-27T14:56:09.949Z,4.75
2022-12-27T14:59:25.692Z,4.78
2022-12-27T15:03:07.835Z,4.59
2022-12-27T15:06:40.613Z,4.38
2022-12-27T15:10:31.841Z,4.22
2022-12-27T15:14:05.253Z,4.05
2022-12-27T15:17:31.948Z,3.88
2022-12-27T15:20:53.737Z,3.83
2022-12-27T15:24:07.448Z,3.73
2022-12-27T15:27:31.625Z,3.71
2022-12-27T15:30:49.635Z,3.57
2022-12-27T15:34:11.521Z,3.37
2022-12-27T15:37:48.544Z,3.60
2022-12-27T15:41:09.389Z,3.62
2022-12-27T15:44:55.394Z,3.58
2022-12-27T15:48:01.576Z,3.46
2022-12-27T15:51:27.607Z,3.22
2022-12-27T15:55:01.673Z,3.25
2022-12-27T15:58:23.896Z,3.14
2022-12-27T16:01:29.944Z,3.01
2022-12-27T16:05:06.751Z,3.00
2022-12-27T16:08:09.598Z,2.86
2022-12-27T16:11:13.748Z,2.98
2022-12-27T16:14:28.819Z,3.13
2022-12-27T16:17:48.523Z,3.15
2022-12-27T16:21:40.251Z,3.09
2022-12-27T16:24:43.873Z,3.00
2022-12-27T16:28:04.720Z,2.95
2022-12-27T16:31:12.055Z,2.79
2022-12-27T16:34:25.636Z,2.78
2022-12-27T16:37:45.187Z,2.91
2022-12-27T16:40:55.992Z,2.82
2022-12-27T16:46:50.427Z,2.38
2022-12-27T16:50:00.074Z,1.89
2022-12-27T16:53:34.536Z,1.81
2022-12-27T16:56:45.020Z,1.65
2022-12-27T17:00:00.282Z,1.68
2022-12-27T17:03:35.805Z,1.44
2022-12-27T17:06:38.815Z,1.38
2022-12-27T17:09:42.982Z,1.36
2022-12-27T17:12:52.523Z,1.34
2022-12-27T17:16:20.445Z,1.23
2022-12-27T17:19:57.903Z,1.15
2022-12-27T17:23:04.633Z,1.27
2022-12-27T17:26:42.826Z,1.28
2022-12-27T17:29:55.138Z,1.37
2022-12-27T17:33:08.497Z,1.45
2022-12-27T17:36:19.593Z,1.48
2022-12-27T17:39:28.690Z,1.53
2022-12-27T17:43:15.294Z,1.58
2022-12-27T17:46:27.445Z,1.50
2022-12-27T17:49:33.521Z,1.47
2022-12-27T17:52:54.852Z,1.44
2022-12-27T17:56:41.573Z,1.44
2022-12-27T17:59:47.574Z,1.30
2022-12-27T18:02:52.760Z,1.23
2022-12-27T18:05:56.473Z,1.36
2022-12-27T18:09:00.139Z,1.34
2022-12-27T18:12:20.763Z,1.39
2022-12-27T18:15:29.697Z,1.22
2022-12-27T18:18:35.246Z,1.20
2022-12-27T18:21:38.331Z,1.31
2022-12-27T18:24:42.313Z,1.22
2022-12-27T18:27:45.763Z,1.14
2022-12-27T18:31:08.839Z,1.13
2022-12-27T18:34:33.222Z,1.24
2022-12-27T18:37:39.956Z,1.16
2022-12-27T18:40:43.322Z,1.10
2022-12-27T18:43:50.687Z,1.15
2022-12-27T18:47:01.103Z,1.29
2022-12-27T18:50:07.246Z,1.41
2022-12-27T18:53:35.736Z,1.49
2022-12-27T18:56:41.895Z,1.62
2022-12-27T18:59:45.046Z,1.42
2022-12-27T19:02:50.354Z,1.27
2022-12-27T19:06:05.882Z,0.89
2022-12-27T19:09:16.923Z,0.55
2022-12-27T19:12:37.764Z,0.61
2022-12-27T19:15:44.302Z,0.67
2022-12-27T19:18:53.114Z,0.67
2022-12-27T19:21:59.069Z,0.52
2022-12-27T19:25:07.091Z,0.68
2022-12-27T19:28:10.485Z,0.61
2022-12-27T19:31:22.115Z,0.48
2022-12-27T19:34:33.126Z,0.47
2022-12-27T19:37:36.788Z,0.44
2022-12-27T19:40:41.056Z,0.83
2022-12-27T19:43:48.217Z,0.64
2022-12-27T19:46:56.004Z,0.69
2022-12-27T19:50:01.265Z,0.50
2022-12-27T19:53:05.418Z,0.21
2022-12-27T19:56:10.537Z,0.33
2022-12-27T19:59:25.493Z,0.27
2022-12-27T20:02:31.966Z,0.21
2022-12-27T20:06:13.693Z,0.24
2022-12-27T20:09:02.033Z,0.56
2022-12-27T20:12:05.982Z,0.72
2022-12-27T20:15:10.300Z,0.66
2022-12-27T20:18:14.524Z,0.47
2022-12-27T20:21:19.689Z,0.23
2022-12-27T20:24:23.784Z,0.21
2022-12-27T20:27:27.487Z,0.22
2022-12-27T20:30:32.123Z,-0.07
2022-12-27T20:33:36.503Z,-0.01
2022-12-27T20:36:41.671Z,0.09
2022-12-27T20:39:46.003Z,0.14
2022-12-27T20:42:50.281Z,0.24
2022-12-27T20:45:53.569Z,0.17
2022-12-27T20:48:57.773Z,-0.14
2022-12-27T20:52:01.101Z,-0.24
2022-12-27T20:55:12.656Z,-0.28
2022-12-27T20:58:15.882Z,-0.16
2022-12-27T21:01:22.372Z,-0.20
2022-12-27T21:04:27.180Z,-0.25
2022-12-27T21:07:30.585Z,-0.17
2022-12-27T21:10:35.213Z,-0.23
2022-12-27T21:13:40.499Z,-0.28
2022-12-27T21:16:43.568Z,-0.29
2022-12-27T21:19:46.961Z,-0.27
2022-12-27T21:22:49.963Z,-0.47
2022-12-27T21:25:53.298Z,-0.37
2022-12-27T21:28:57.324Z,-0.30
2022-12-27T21:32:01.997Z,-0.10
2022-12-27T21:35:05.366Z,-0.15
2022-12-27T21:38:08.698Z,-0.25
2022-12-27T21:41:15.322Z,-0.32
2022-12-27T21:44:18.741Z,-0.25
2022-12-27T21:47:21.853Z,-0.15
2022-12-27T21:50:25.280Z,-0.17
2022-12-27T21:53:28.274Z,0.05
2022-12-27T21:56:31.853Z,0.08
2022-12-27T21:59:34.781Z,0.15
2022-12-27T22:02:38.239Z,0.00
2022-12-27T22:05:41.760Z,0.09
2022-12-27T22:08:47.333Z,0.19
2022-12-27T22:11:50.879Z,0.17
2022-12-27T22:14:54.125Z,0.14
2022-12-27T22:17:57.569Z,0.03
2022-12-27T22:21:02.443Z,0.13
2022-12-27T22:24:06.997Z,0.08
2022-12-27T22:27:10.177Z,0.09
2022-12-27T22:30:13.882Z,0.17
2022-12-27T22:33:17.258Z,-0.05
2022-12-27T22:36:24.038Z,-0.13
2022-12-27T22:39:29.409Z,-0.37
2022-12-27T22:42:32.694Z,-0.22
2022-12-27T22:45:35.776Z,-0.37
2022-12-27T22:48:40.534Z,-0.37
2022-12-27T22:51:43.934Z,-0.47
2022-12-27T22:55:04.509Z,-0.37
2022-12-27T22:58:09.723Z,-0.19
2022-12-27T23:01:21.945Z,-0.38
2022-12-27T23:04:25.053Z,-0.42
2022-12-27T23:08:06.057Z,-0.61
2022-12-27T23:10:52.088Z,-0.55
2022-12-27T23:14:07.772Z,-0.43
2022-12-27T23:17:10.812Z,-0.34
2022-12-27T23:20:14.078Z,-0.13
2022-12-27T23:23:17.186Z,-0.01
2022-12-27T23:26:23.027Z,0.15
2022-12-27T23:29:26.039Z,0.17
2022-12-27T23:32:29.446Z,0.02
2022-12-27T23:35:33.006Z,-0.09
2022-12-27T23:38:36.484Z,-0.18
2022-12-27T23:41:39.729Z,-0.38
2022-12-27T23:44:43.037Z,-0.60
2022-12-27T23:47:46.033Z,-0.48
2022-12-27T23:50:49.393Z,-0.58
2022-12-27T23:53:53.061Z,-0.69
2022-12-27T23:56:56.734Z,-0.94
2022-12-27T23:59:59.711Z,-1.05
